sensor_id;sensor_type;location;lat;lon;timestamp;P1;durP1;ratioP1;P2;durP2;ratioP2
8642;SDS011;4359;49.358;11.256;2023-05-14T00:01:33;16.70;;;11.68;;
8642;SDS011;4359;49.358;11.256;2023-05-14T00:04:00;15.90;;;10.95;;
8642;SDS011;4359;49.358;11.256;2023-05-14T00:06:26;16.95;;;10.70;;
8642;SDS011;4359;49.358;11.256;2023-05-14T00:08:51;15.02;;;10.70;;
8642;SDS011;4359;49.358;11.256;2023-05-14T00:11:17;16.65;;;10.48;;
8642;SDS011;4359;49.358;11.256;2023-05-14T00:13:43;15.70;;;10.68;;
8642;SDS011;4359;49.358;11.256;2023-05-14T00:16:09;21.23;;;11.88;;
8642;SDS011;4359;49.358;11.256;2023-05-14T00:18:35;16.85;;;11.18;;
8642;SDS011;4359;49.358;11.256;2023-05-14T00:21:00;16.73;;;11.00;;
8642;SDS011;4359;49.358;11.256;2023-05-14T00:23:26;17.35;;;11.07;;
8642;SDS011;4359;49.358;11.256;2023-05-14T00:25:52;18.08;;;11.75;;
8642;SDS011;4359;49.358;11.256;2023-05-14T00:28:17;19.70;;;12.70;;
8642;SDS011;4359;49.358;11.256;2023-05-14T00:30:44;18.52;;;12.38;;
8642;SDS011;4359;49.358;11.256;2023-05-14T00:33:09;19.83;;;12.70;;
8642;SDS011;4359;49.358;11.256;2023-05-14T00:35:35;23.42;;;13.63;;
8642;SDS011;4359;49.358;11.256;2023-05-14T00:38:01;16.92;;;11.82;;
8642;SDS011;4359;49.358;11.256;2023-05-14T00:40:27;17.25;;;11.77;;
8642;SDS011;4359;49.358;11.256;2023-05-14T00:42:53;20.02;;;11.98;;
8642;SDS011;4359;49.358;11.256;2023-05-14T00:45:20;22.70;;;12.65;;
8642;SDS011;4359;49.358;11.256;2023-05-14T00:47:46;19.42;;;13.10;;
8642;SDS011;4359;49.358;11.256;2023-05-14T00:50:15;18.63;;;12.60;;
8642;SDS011;4359;49.358;11.256;2023-05-14T00:52:41;19.83;;;11.98;;
8642;SDS011;4359;49.358;11.256;2023-05-14T00:55:08;19.75;;;13.07;;
8642;SDS011;4359;49.358;11.256;2023-05-14T00:57:37;17.42;;;12.38;;
8642;SDS011;4359;49.358;11.256;2023-05-14T01:00:03;20.77;;;13.15;;
8642;SDS011;4359;49.358;11.256;2023-05-14T01:02:29;20.15;;;12.93;;
8642;SDS011;4359;49.358;11.256;2023-05-14T01:04:55;18.80;;;12.00;;
8642;SDS011;4359;49.358;11.256;2023-05-14T01:10:10;19.33;;;13.00;;
8642;SDS011;4359;49.358;11.256;2023-05-14T01:15:45;21.42;;;12.85;;
8642;SDS011;4359;49.358;11.256;2023-05-14T01:18:12;19.10;;;12.00;;
8642;SDS011;4359;49.358;11.256;2023-05-14T01:20:40;22.33;;;13.68;;
8642;SDS011;4359;49.358;11.256;2023-05-14T01:23:06;18.67;;;12.60;;
8642;SDS011;4359;49.358;11.256;2023-05-14T01:25:32;20.95;;;13.10;;
8642;SDS011;4359;49.358;11.256;2023-05-14T01:28:08;21.38;;;13.32;;
8642;SDS011;4359;49.358;11.256;2023-05-14T01:30:52;21.35;;;14.23;;
8642;SDS011;4359;49.358;11.256;2023-05-14T01:33:18;18.48;;;13.07;;
8642;SDS011;4359;49.358;11.256;2023-05-14T01:35:45;17.98;;;12.68;;
8642;SDS011;4359;49.358;11.256;2023-05-14T01:38:12;20.33;;;12.57;;
8642;SDS011;4359;49.358;11.256;2023-05-14T01:40:41;18.42;;;12.32;;
8642;SDS011;4359;49.358;11.256;2023-05-14T01:43:09;18.95;;;11.80;;
8642;SDS011;4359;49.358;11.256;2023-05-14T01:45:35;18.65;;;11.45;;
8642;SDS011;4359;49.358;11.256;2023-05-14T01:48:02;15.07;;;10.65;;
8642;SDS011;4359;49.358;11.256;2023-05-14T01:50:29;20.88;;;12.68;;
8642;SDS011;4359;49.358;11.256;2023-05-14T01:52:55;17.00;;;11.85;;
8642;SDS011;4359;49.358;11.256;2023-05-14T01:55:23;20.80;;;12.35;;
8642;SDS011;4359;49.358;11.256;2023-05-14T01:57:50;20.50;;;12.52;;
8642;SDS011;4359;49.358;11.256;2023-05-14T02:00:16;18.23;;;12.20;;
8642;SDS011;4359;49.358;11.256;2023-05-14T02:02:42;20.48;;;12.05;;
8642;SDS011;4359;49.358;11.256;2023-05-14T02:05:09;17.88;;;11.32;;
8642;SDS011;4359;49.358;11.256;2023-05-14T02:07:35;17.40;;;12.70;;
8642;SDS011;4359;49.358;11.256;2023-05-14T02:10:01;20.20;;;12.52;;
8642;SDS011;4359;49.358;11.256;2023-05-14T02:12:27;17.63;;;12.07;;
8642;SDS011;4359;49.358;11.256;2023-05-14T02:14:52;22.65;;;13.07;;
8642;SDS011;4359;49.358;11.256;2023-05-14T02:17:18;18.25;;;12.80;;
8642;SDS011;4359;49.358;11.256;2023-05-14T02:19:44;17.35;;;11.90;;
8642;SDS011;4359;49.358;11.256;2023-05-14T02:22:10;20.20;;;13.18;;
8642;SDS011;4359;49.358;11.256;2023-05-14T02:24:36;22.67;;;13.15;;
8642;SDS011;4359;49.358;11.256;2023-05-14T02:27:02;22.17;;;13.82;;
8642;SDS011;4359;49.358;11.256;2023-05-14T02:29:27;22.40;;;12.48;;
8642;SDS011;4359;49.358;11.256;2023-05-14T02:31:53;23.20;;;12.30;;
8642;SDS011;4359;49.358;11.256;2023-05-14T02:34:19;18.02;;;11.75;;
8642;SDS011;4359;49.358;11.256;2023-05-14T02:36:45;18.48;;;12.57;;
8642;SDS011;4359;49.358;11.256;2023-05-14T02:39:10;17.73;;;11.65;;
8642;SDS011;4359;49.358;11.256;2023-05-14T02:41:36;20.20;;;13.10;;
8642;SDS011;4359;49.358;11.256;2023-05-14T02:44:01;21.58;;;13.02;;
8642;SDS011;4359;49.358;11.256;2023-05-14T02:46:27;21.05;;;13.15;;
8642;SDS011;4359;49.358;11.256;2023-05-14T02:48:53;19.58;;;13.00;;
8642;SDS011;4359;49.358;11.256;2023-05-14T02:51:19;18.40;;;12.52;;
8642;SDS011;4359;49.358;11.256;2023-05-14T02:53:45;19.10;;;12.20;;
8642;SDS011;4359;49.358;11.256;2023-05-14T02:56:11;18.00;;;12.32;;
8642;SDS011;4359;49.358;11.256;2023-05-14T02:58:36;18.55;;;12.13;;
8642;SDS011;4359;49.358;11.256;2023-05-14T03:01:02;18.55;;;12.63;;
8642;SDS011;4359;49.358;11.256;2023-05-14T03:03:28;19.23;;;12.23;;
8642;SDS011;4359;49.358;11.256;2023-05-14T03:05:54;19.35;;;12.25;;
8642;SDS011;4359;49.358;11.256;2023-05-14T03:08:20;16.95;;;11.95;;
8642;SDS011;4359;49.358;11.256;2023-05-14T03:10:46;17.33;;;12.45;;
8642;SDS011;4359;49.358;11.256;2023-05-14T03:13:11;17.85;;;12.40;;
8642;SDS011;4359;49.358;11.256;2023-05-14T03:15:41;24.10;;;12.73;;
8642;SDS011;4359;49.358;11.256;2023-05-14T03:18:07;18.55;;;12.63;;
8642;SDS011;4359;49.358;11.256;2023-05-14T03:20:33;22.27;;;15.10;;
8642;SDS011;4359;49.358;11.256;2023-05-14T03:22:59;22.33;;;14.18;;
8642;SDS011;4359;49.358;11.256;2023-05-14T03:25:24;19.90;;;12.80;;
8642;SDS011;4359;49.358;11.256;2023-05-14T03:27:50;21.13;;;13.13;;
8642;SDS011;4359;49.358;11.256;2023-05-14T03:30:16;18.50;;;13.32;;
8642;SDS011;4359;49.358;11.256;2023-05-14T03:32:42;24.05;;;15.07;;
8642;SDS011;4359;49.358;11.256;2023-05-14T03:35:09;21.75;;;14.48;;
8642;SDS011;4359;49.358;11.256;2023-05-14T03:37:34;25.42;;;14.60;;
8642;SDS011;4359;49.358;11.256;2023-05-14T03:40:00;20.05;;;13.70;;
8642;SDS011;4359;49.358;11.256;2023-05-14T03:42:26;22.67;;;15.38;;
8642;SDS011;4359;49.358;11.256;2023-05-14T03:44:52;25.35;;;15.55;;
8642;SDS011;4359;49.358;11.256;2023-05-14T03:47:17;21.35;;;15.15;;
8642;SDS011;4359;49.358;11.256;2023-05-14T03:49:43;20.58;;;14.35;;
8642;SDS011;4359;49.358;11.256;2023-05-14T03:52:09;26.15;;;14.73;;
8642;SDS011;4359;49.358;11.256;2023-05-14T03:54:34;20.98;;;14.50;;
8642;SDS011;4359;49.358;11.256;2023-05-14T03:57:00;20.08;;;13.50;;
8642;SDS011;4359;49.358;11.256;2023-05-14T03:59:26;21.30;;;13.73;;
8642;SDS011;4359;49.358;11.256;2023-05-14T04:01:51;21.27;;;13.85;;
8642;SDS011;4359;49.358;11.256;2023-05-14T04:04:17;18.40;;;12.95;;
8642;SDS011;4359;49.358;11.256;2023-05-14T04:06:43;19.17;;;13.07;;
8642;SDS011;4359;49.358;11.256;2023-05-14T04:09:09;19.25;;;12.32;;
8642;SDS011;4359;49.358;11.256;2023-05-14T04:11:35;15.15;;;11.40;;
8642;SDS011;4359;49.358;11.256;2023-05-14T04:14:01;15.80;;;11.90;;
8642;SDS011;4359;49.358;11.256;2023-05-14T04:16:26;17.00;;;11.25;;
8642;SDS011;4359;49.358;11.256;2023-05-14T04:18:52;13.75;;;10.45;;
8642;SDS011;4359;49.358;11.256;2023-05-14T04:21:17;14.88;;;12.20;;
8642;SDS011;4359;49.358;11.256;2023-05-14T04:23:43;14.38;;;10.73;;
8642;SDS011;4359;49.358;11.256;2023-05-14T04:26:09;15.70;;;10.32;;
8642;SDS011;4359;49.358;11.256;2023-05-14T04:28:34;13.30;;;9.63;;
8642;SDS011;4359;49.358;11.256;2023-05-14T04:31:00;14.40;;;10.50;;
8642;SDS011;4359;49.358;11.256;2023-05-14T04:33:25;13.82;;;10.10;;
8642;SDS011;4359;49.358;11.256;2023-05-14T04:35:51;16.40;;;10.07;;
8642;SDS011;4359;49.358;11.256;2023-05-14T04:38:17;13.73;;;10.40;;
8642;SDS011;4359;49.358;11.256;2023-05-14T04:40:46;13.52;;;10.40;;
8642;SDS011;4359;49.358;11.256;2023-05-14T04:43:11;13.73;;;10.30;;
8642;SDS011;4359;49.358;11.256;2023-05-14T04:45:37;13.65;;;9.45;;
8642;SDS011;4359;49.358;11.256;2023-05-14T04:48:03;15.02;;;10.05;;
8642;SDS011;4359;49.358;11.256;2023-05-14T04:50:29;12.95;;;8.95;;
8642;SDS011;4359;49.358;11.256;2023-05-14T04:52:54;10.98;;;8.80;;
8642;SDS011;4359;49.358;11.256;2023-05-14T04:55:20;11.57;;;8.88;;
8642;SDS011;4359;49.358;11.256;2023-05-14T04:57:46;12.27;;;9.05;;
8642;SDS011;4359;49.358;11.256;2023-05-14T05:00:13;9.07;;;7.45;;
8642;SDS011;4359;49.358;11.256;2023-05-14T05:02:39;9.80;;;7.78;;
8642;SDS011;4359;49.358;11.256;2023-05-14T05:05:05;10.93;;;8.00;;
8642;SDS011;4359;49.358;11.256;2023-05-14T05:07:31;18.23;;;10.18;;
8642;SDS011;4359;49.358;11.256;2023-05-14T05:09:56;11.02;;;8.18;;
8642;SDS011;4359;49.358;11.256;2023-05-14T05:12:22;11.05;;;8.52;;
8642;SDS011;4359;49.358;11.256;2023-05-14T05:14:48;13.15;;;9.48;;
8642;SDS011;4359;49.358;11.256;2023-05-14T05:17:13;10.88;;;8.15;;
8642;SDS011;4359;49.358;11.256;2023-05-14T05:19:39;10.98;;;8.18;;
8642;SDS011;4359;49.358;11.256;2023-05-14T05:22:04;16.75;;;7.85;;
8642;SDS011;4359;49.358;11.256;2023-05-14T05:24:30;11.40;;;7.70;;
8642;SDS011;4359;49.358;11.256;2023-05-14T05:26:57;10.35;;;7.65;;
8642;SDS011;4359;49.358;11.256;2023-05-14T05:29:23;9.65;;;7.05;;
8642;SDS011;4359;49.358;11.256;2023-05-14T05:31:48;11.65;;;7.88;;
8642;SDS011;4359;49.358;11.256;2023-05-14T05:34:14;10.15;;;7.63;;
8642;SDS011;4359;49.358;11.256;2023-05-14T05:36:40;11.77;;;7.60;;
8642;SDS011;4359;49.358;11.256;2023-05-14T05:39:06;9.98;;;6.93;;
8642;SDS011;4359;49.358;11.256;2023-05-14T05:41:31;12.38;;;7.40;;
8642;SDS011;4359;49.358;11.256;2023-05-14T05:43:57;10.10;;;6.93;;
8642;SDS011;4359;49.358;11.256;2023-05-14T05:46:22;15.50;;;8.02;;
8642;SDS011;4359;49.358;11.256;2023-05-14T05:48:48;10.15;;;7.25;;
8642;SDS011;4359;49.358;11.256;2023-05-14T05:51:14;9.73;;;6.93;;
8642;SDS011;4359;49.358;11.256;2023-05-14T05:53:39;9.52;;;7.00;;
8642;SDS011;4359;49.358;11.256;2023-05-14T05:56:05;9.48;;;6.65;;
8642;SDS011;4359;49.358;11.256;2023-05-14T05:58:31;8.45;;;6.40;;
8642;SDS011;4359;49.358;11.256;2023-05-14T06:00:57;9.90;;;6.28;;
8642;SDS011;4359;49.358;11.256;2023-05-14T06:03:23;9.02;;;5.85;;
8642;SDS011;4359;49.358;11.256;2023-05-14T06:05:49;7.30;;;5.78;;
8642;SDS011;4359;49.358;11.256;2023-05-14T06:08:16;13.70;;;6.32;;
8642;SDS011;4359;49.358;11.256;2023-05-14T06:10:42;7.45;;;6.13;;
8642;SDS011;4359;49.358;11.256;2023-05-14T06:13:08;7.30;;;5.70;;
8642;SDS011;4359;49.358;11.256;2023-05-14T06:15:33;8.18;;;5.90;;
8642;SDS011;4359;49.358;11.256;2023-05-14T06:17:59;9.68;;;6.20;;
8642;SDS011;4359;49.358;11.256;2023-05-14T06:20:25;8.35;;;6.38;;
8642;SDS011;4359;49.358;11.256;2023-05-14T06:22:50;10.30;;;6.45;;
8642;SDS011;4359;49.358;11.256;2023-05-14T06:25:16;9.80;;;6.15;;
8642;SDS011;4359;49.358;11.256;2023-05-14T06:27:42;11.70;;;7.15;;
8642;SDS011;4359;49.358;11.256;2023-05-14T06:30:08;8.88;;;7.25;;
8642;SDS011;4359;49.358;11.256;2023-05-14T06:32:35;9.02;;;6.22;;
8642;SDS011;4359;49.358;11.256;2023-05-14T06:35:01;8.82;;;6.65;;
8642;SDS011;4359;49.358;11.256;2023-05-14T06:37:26;11.35;;;6.60;;
8642;SDS011;4359;49.358;11.256;2023-05-14T06:39:52;9.75;;;7.10;;
8642;SDS011;4359;49.358;11.256;2023-05-14T06:42:18;9.68;;;6.80;;
8642;SDS011;4359;49.358;11.256;2023-05-14T06:44:43;12.52;;;7.20;;
8642;SDS011;4359;49.358;11.256;2023-05-14T06:47:09;12.85;;;6.97;;
8642;SDS011;4359;49.358;11.256;2023-05-14T06:49:35;10.02;;;6.85;;
8642;SDS011;4359;49.358;11.256;2023-05-14T06:52:01;15.90;;;8.52;;
8642;SDS011;4359;49.358;11.256;2023-05-14T06:54:27;64.60;;;28.83;;
8642;SDS011;4359;49.358;11.256;2023-05-14T06:56:53;15.27;;;9.27;;
8642;SDS011;4359;49.358;11.256;2023-05-14T06:59:19;9.75;;;7.32;;
8642;SDS011;4359;49.358;11.256;2023-05-14T07:01:45;11.20;;;7.50;;
8642;SDS011;4359;49.358;11.256;2023-05-14T07:04:10;15.82;;;9.77;;
8642;SDS011;4359;49.358;11.256;2023-05-14T07:06:36;16.83;;;10.45;;
8642;SDS011;4359;49.358;11.256;2023-05-14T07:09:01;16.70;;;10.10;;
8642;SDS011;4359;49.358;11.256;2023-05-14T07:11:27;10.77;;;8.50;;
8642;SDS011;4359;49.358;11.256;2023-05-14T07:13:53;12.02;;;7.05;;
8642;SDS011;4359;49.358;11.256;2023-05-14T07:16:19;11.25;;;7.95;;
8642;SDS011;4359;49.358;11.256;2023-05-14T07:18:44;11.30;;;7.70;;
8642;SDS011;4359;49.358;11.256;2023-05-14T07:21:10;9.90;;;6.50;;
8642;SDS011;4359;49.358;11.256;2023-05-14T07:23:36;10.75;;;6.03;;
8642;SDS011;4359;49.358;11.256;2023-05-14T07:26:05;12.30;;;6.70;;
8642;SDS011;4359;49.358;11.256;2023-05-14T07:28:31;8.10;;;5.97;;
8642;SDS011;4359;49.358;11.256;2023-05-14T07:30:56;8.60;;;5.85;;
8642;SDS011;4359;49.358;11.256;2023-05-14T07:33:23;7.82;;;5.97;;
8642;SDS011;4359;49.358;11.256;2023-05-14T07:35:49;9.10;;;6.40;;
8642;SDS011;4359;49.358;11.256;2023-05-14T07:38:15;8.57;;;6.22;;
8642;SDS011;4359;49.358;11.256;2023-05-14T07:40:41;8.93;;;6.03;;
8642;SDS011;4359;49.358;11.256;2023-05-14T07:43:07;9.23;;;6.18;;
8642;SDS011;4359;49.358;11.256;2023-05-14T07:45:34;8.02;;;5.82;;
8642;SDS011;4359;49.358;11.256;2023-05-14T07:48:01;10.23;;;6.88;;
8642;SDS011;4359;49.358;11.256;2023-05-14T07:50:27;10.20;;;7.30;;
8642;SDS011;4359;49.358;11.256;2023-05-14T07:52:52;7.93;;;5.80;;
8642;SDS011;4359;49.358;11.256;2023-05-14T07:55:18;10.02;;;6.93;;
8642;SDS011;4359;49.358;11.256;2023-05-14T07:57:44;8.88;;;6.20;;
8642;SDS011;4359;49.358;11.256;2023-05-14T08:00:10;10.23;;;6.47;;
8642;SDS011;4359;49.358;11.256;2023-05-14T08:02:36;12.32;;;6.97;;
8642;SDS011;4359;49.358;11.256;2023-05-14T08:05:02;7.82;;;6.22;;
8642;SDS011;4359;49.358;11.256;2023-05-14T08:07:28;9.80;;;6.78;;
8642;SDS011;4359;49.358;11.256;2023-05-14T08:09:54;9.02;;;5.85;;
8642;SDS011;4359;49.358;11.256;2023-05-14T08:12:20;9.52;;;6.13;;
8642;SDS011;4359;49.358;11.256;2023-05-14T08:14:46;8.30;;;6.35;;
8642;SDS011;4359;49.358;11.256;2023-05-14T08:17:12;8.30;;;5.68;;
8642;SDS011;4359;49.358;11.256;2023-05-14T08:19:37;13.00;;;7.55;;
8642;SDS011;4359;49.358;11.256;2023-05-14T08:22:03;14.15;;;6.82;;
8642;SDS011;4359;49.358;11.256;2023-05-14T08:24:29;12.65;;;6.80;;
8642;SDS011;4359;49.358;11.256;2023-05-14T08:26:55;12.18;;;7.10;;
8642;SDS011;4359;49.358;11.256;2023-05-14T08:29:21;11.88;;;6.75;;
8642;SDS011;4359;49.358;11.256;2023-05-14T08:31:49;9.65;;;6.00;;
8642;SDS011;4359;49.358;11.256;2023-05-14T08:34:15;7.30;;;5.72;;
8642;SDS011;4359;49.358;11.256;2023-05-14T08:36:40;6.88;;;4.78;;
8642;SDS011;4359;49.358;11.256;2023-05-14T08:39:06;7.32;;;5.50;;
8642;SDS011;4359;49.358;11.256;2023-05-14T08:41:32;7.45;;;5.35;;
8642;SDS011;4359;49.358;11.256;2023-05-14T08:46:30;9.32;;;5.57;;
8642;SDS011;4359;49.358;11.256;2023-05-14T08:49:04;7.95;;;5.47;;
8642;SDS011;4359;49.358;11.256;2023-05-14T08:51:50;8.95;;;4.90;;
8642;SDS011;4359;49.358;11.256;2023-05-14T08:54:16;9.50;;;4.82;;
8642;SDS011;4359;49.358;11.256;2023-05-14T08:56:43;7.07;;;4.88;;
8642;SDS011;4359;49.358;11.256;2023-05-14T08:59:12;8.00;;;4.65;;
8642;SDS011;4359;49.358;11.256;2023-05-14T09:01:40;8.63;;;5.95;;
8642;SDS011;4359;49.358;11.256;2023-05-14T09:04:10;7.18;;;4.38;;
8642;SDS011;4359;49.358;11.256;2023-05-14T09:06:37;7.45;;;4.80;;
8642;SDS011;4359;49.358;11.256;2023-05-14T09:09:04;7.43;;;4.72;;
8642;SDS011;4359;49.358;11.256;2023-05-14T09:11:30;5.15;;;3.72;;
8642;SDS011;4359;49.358;11.256;2023-05-14T09:13:56;8.68;;;4.60;;
8642;SDS011;4359;49.358;11.256;2023-05-14T09:16:21;8.38;;;4.38;;
8642;SDS011;4359;49.358;11.256;2023-05-14T09:18:49;6.45;;;4.18;;
8642;SDS011;4359;49.358;11.256;2023-05-14T09:21:16;6.15;;;4.38;;
8642;SDS011;4359;49.358;11.256;2023-05-14T09:23:42;4.90;;;4.00;;
8642;SDS011;4359;49.358;11.256;2023-05-14T09:26:09;6.40;;;3.83;;
8642;SDS011;4359;49.358;11.256;2023-05-14T09:28:39;8.48;;;3.78;;
8642;SDS011;4359;49.358;11.256;2023-05-14T09:31:05;5.10;;;3.83;;
8642;SDS011;4359;49.358;11.256;2023-05-14T09:33:33;5.70;;;3.53;;
8642;SDS011;4359;49.358;11.256;2023-05-14T09:35:58;3.95;;;3.00;;
8642;SDS011;4359;49.358;11.256;2023-05-14T09:38:28;4.85;;;3.40;;
8642;SDS011;4359;49.358;11.256;2023-05-14T09:40:55;6.13;;;3.17;;
8642;SDS011;4359;49.358;11.256;2023-05-14T09:43:21;4.95;;;2.95;;
8642;SDS011;4359;49.358;11.256;2023-05-14T09:45:47;4.72;;;2.90;;
8642;SDS011;4359;49.358;11.256;2023-05-14T09:48:12;3.85;;;2.80;;
8642;SDS011;4359;49.358;11.256;2023-05-14T09:50:42;3.70;;;2.53;;
8642;SDS011;4359;49.358;11.256;2023-05-14T09:53:09;3.55;;;2.40;;
8642;SDS011;4359;49.358;11.256;2023-05-14T09:55:35;4.95;;;2.70;;
8642;SDS011;4359;49.358;11.256;2023-05-14T09:58:01;3.88;;;2.75;;
8642;SDS011;4359;49.358;11.256;2023-05-14T10:00:28;4.78;;;2.78;;
8642;SDS011;4359;49.358;11.256;2023-05-14T10:02:56;3.53;;;2.55;;
8642;SDS011;4359;49.358;11.256;2023-05-14T10:05:22;3.80;;;2.53;;
8642;SDS011;4359;49.358;11.256;2023-05-14T10:07:50;3.47;;;2.40;;
8642;SDS011;4359;49.358;11.256;2023-05-14T10:10:18;4.05;;;2.20;;
8642;SDS011;4359;49.358;11.256;2023-05-14T10:12:49;5.78;;;2.40;;
8642;SDS011;4359;49.358;11.256;2023-05-14T10:15:25;3.67;;;2.53;;
8642;SDS011;4359;49.358;11.256;2023-05-14T10:17:58;3.60;;;2.15;;
8642;SDS011;4359;49.358;11.256;2023-05-14T10:20:27;2.85;;;2.13;;
8642;SDS011;4359;49.358;11.256;2023-05-14T10:22:53;6.70;;;2.25;;
8642;SDS011;4359;49.358;11.256;2023-05-14T10:25:19;4.40;;;2.20;;
8642;SDS011;4359;49.358;11.256;2023-05-14T10:27:45;3.28;;;2.17;;
8642;SDS011;4359;49.358;11.256;2023-05-14T10:30:11;3.05;;;2.28;;
8642;SDS011;4359;49.358;11.256;2023-05-14T10:32:37;3.60;;;2.35;;
8642;SDS011;4359;49.358;11.256;2023-05-14T10:35:15;6.72;;;2.47;;
8642;SDS011;4359;49.358;11.256;2023-05-14T10:37:42;3.75;;;2.28;;
8642;SDS011;4359;49.358;11.256;2023-05-14T10:40:10;3.78;;;2.35;;
8642;SDS011;4359;49.358;11.256;2023-05-14T10:42:37;4.05;;;2.78;;
8642;SDS011;4359;49.358;11.256;2023-05-14T10:45:11;4.10;;;3.13;;
8642;SDS011;4359;49.358;11.256;2023-05-14T10:47:38;6.30;;;3.45;;
8642;SDS011;4359;49.358;11.256;2023-05-14T10:50:10;7.38;;;3.38;;
8642;SDS011;4359;49.358;11.256;2023-05-14T10:52:39;5.22;;;3.28;;
8642;SDS011;4359;49.358;11.256;2023-05-14T10:55:11;4.13;;;2.85;;
8642;SDS011;4359;49.358;11.256;2023-05-14T10:57:39;4.43;;;2.80;;
8642;SDS011;4359;49.358;11.256;2023-05-14T11:00:07;4.35;;;3.40;;
8642;SDS011;4359;49.358;11.256;2023-05-14T11:02:38;4.95;;;2.90;;
8642;SDS011;4359;49.358;11.256;2023-05-14T11:05:12;4.40;;;2.72;;
8642;SDS011;4359;49.358;11.256;2023-05-14T11:07:40;3.42;;;2.47;;
8642;SDS011;4359;49.358;11.256;2023-05-14T11:10:11;3.80;;;2.40;;
8642;SDS011;4359;49.358;11.256;2023-05-14T11:12:38;5.65;;;2.92;;
8642;SDS011;4359;49.358;11.256;2023-05-14T11:15:06;4.22;;;2.90;;
8642;SDS011;4359;49.358;11.256;2023-05-14T11:17:36;3.80;;;3.00;;
8642;SDS011;4359;49.358;11.256;2023-05-14T11:20:04;4.18;;;2.83;;
8642;SDS011;4359;49.358;11.256;2023-05-14T11:22:31;4.30;;;3.08;;
8642;SDS011;4359;49.358;11.256;2023-05-14T11:24:57;4.80;;;3.70;;
8642;SDS011;4359;49.358;11.256;2023-05-14T11:27:23;4.75;;;3.30;;
8642;SDS011;4359;49.358;11.256;2023-05-14T11:29:48;4.35;;;3.05;;
8642;SDS011;4359;49.358;11.256;2023-05-14T11:32:15;5.38;;;3.33;;
8642;SDS011;4359;49.358;11.256;2023-05-14T11:34:42;4.80;;;3.28;;
8642;SDS011;4359;49.358;11.256;2023-05-14T11:37:11;5.13;;;3.03;;
8642;SDS011;4359;49.358;11.256;2023-05-14T11:39:47;5.15;;;3.08;;
8642;SDS011;4359;49.358;11.256;2023-05-14T11:42:14;5.43;;;3.10;;
8642;SDS011;4359;49.358;11.256;2023-05-14T11:44:41;4.10;;;2.90;;
8642;SDS011;4359;49.358;11.256;2023-05-14T11:47:08;4.55;;;3.28;;
8642;SDS011;4359;49.358;11.256;2023-05-14T11:49:35;7.80;;;3.63;;
8642;SDS011;4359;49.358;11.256;2023-05-14T11:52:03;4.57;;;3.38;;
8642;SDS011;4359;49.358;11.256;2023-05-14T11:54:32;3.97;;;3.03;;
8642;SDS011;4359;49.358;11.256;2023-05-14T11:56:58;4.18;;;2.88;;
8642;SDS011;4359;49.358;11.256;2023-05-14T11:59:27;5.13;;;3.00;;
8642;SDS011;4359;49.358;11.256;2023-05-14T12:01:55;4.10;;;3.00;;
8642;SDS011;4359;49.358;11.256;2023-05-14T12:04:21;4.32;;;2.78;;
8642;SDS011;4359;49.358;11.256;2023-05-14T12:06:47;4.85;;;3.20;;
8642;SDS011;4359;49.358;11.256;2023-05-14T12:09:20;4.20;;;3.30;;
8642;SDS011;4359;49.358;11.256;2023-05-14T12:11:47;6.38;;;3.40;;
8642;SDS011;4359;49.358;11.256;2023-05-14T12:14:23;4.32;;;2.90;;
8642;SDS011;4359;49.358;11.256;2023-05-14T12:16:49;4.75;;;3.10;;
8642;SDS011;4359;49.358;11.256;2023-05-14T12:19:17;4.15;;;3.10;;
8642;SDS011;4359;49.358;11.256;2023-05-14T12:21:43;4.57;;;2.75;;
8642;SDS011;4359;49.358;11.256;2023-05-14T12:24:20;5.00;;;3.60;;
8642;SDS011;4359;49.358;11.256;2023-05-14T12:26:46;5.13;;;3.33;;
8642;SDS011;4359;49.358;11.256;2023-05-14T12:29:14;6.00;;;3.10;;
8642;SDS011;4359;49.358;11.256;2023-05-14T12:31:47;8.90;;;5.82;;
8642;SDS011;4359;49.358;11.256;2023-05-14T12:34:14;15.65;;;7.07;;
8642;SDS011;4359;49.358;11.256;2023-05-14T12:36:40;6.20;;;4.38;;
8642;SDS011;4359;49.358;11.256;2023-05-14T12:39:09;5.63;;;3.85;;
8642;SDS011;4359;49.358;11.256;2023-05-14T12:41:36;4.68;;;3.15;;
8642;SDS011;4359;49.358;11.256;2023-05-14T12:44:03;3.83;;;3.00;;
8642;SDS011;4359;49.358;11.256;2023-05-14T12:46:29;5.60;;;3.40;;
8642;SDS011;4359;49.358;11.256;2023-05-14T12:48:55;5.00;;;3.33;;
8642;SDS011;4359;49.358;11.256;2023-05-14T12:51:21;5.13;;;3.40;;
8642;SDS011;4359;49.358;11.256;2023-05-14T12:53:48;6.10;;;3.30;;
8642;SDS011;4359;49.358;11.256;2023-05-14T12:56:15;4.10;;;3.20;;
8642;SDS011;4359;49.358;11.256;2023-05-14T12:58:41;3.85;;;2.95;;
8642;SDS011;4359;49.358;11.256;2023-05-14T13:01:08;6.70;;;3.63;;
8642;SDS011;4359;49.358;11.256;2023-05-14T13:03:33;4.90;;;3.47;;
8642;SDS011;4359;49.358;11.256;2023-05-14T13:05:59;5.47;;;3.80;;
8642;SDS011;4359;49.358;11.256;2023-05-14T13:08:25;5.90;;;3.60;;
8642;SDS011;4359;49.358;11.256;2023-05-14T13:10:52;7.65;;;3.70;;
8642;SDS011;4359;49.358;11.256;2023-05-14T13:13:18;7.78;;;5.50;;
8642;SDS011;4359;49.358;11.256;2023-05-14T13:15:44;7.13;;;3.97;;
8642;SDS011;4359;49.358;11.256;2023-05-14T13:18:14;4.78;;;3.17;;
8642;SDS011;4359;49.358;11.256;2023-05-14T13:20:41;5.20;;;3.47;;
8642;SDS011;4359;49.358;11.256;2023-05-14T13:23:09;5.95;;;3.67;;
8642;SDS011;4359;49.358;11.256;2023-05-14T13:25:34;5.65;;;3.65;;
8642;SDS011;4359;49.358;11.256;2023-05-14T13:28:00;6.32;;;3.88;;
8642;SDS011;4359;49.358;11.256;2023-05-14T13:30:26;5.28;;;3.67;;
8642;SDS011;4359;49.358;11.256;2023-05-14T13:32:56;5.68;;;3.60;;
8642;SDS011;4359;49.358;11.256;2023-05-14T13:35:22;6.90;;;4.03;;
8642;SDS011;4359;49.358;11.256;2023-05-14T13:37:48;5.72;;;3.08;;
8642;SDS011;4359;49.358;11.256;2023-05-14T13:40:14;6.05;;;3.35;;
8642;SDS011;4359;49.358;11.256;2023-05-14T13:42:41;5.88;;;4.30;;
8642;SDS011;4359;49.358;11.256;2023-05-14T13:45:07;4.65;;;3.38;;
8642;SDS011;4359;49.358;11.256;2023-05-14T13:47:33;5.28;;;3.40;;
8642;SDS011;4359;49.358;11.256;2023-05-14T13:49:59;4.13;;;3.20;;
8642;SDS011;4359;49.358;11.256;2023-05-14T13:52:25;6.32;;;3.20;;
8642;SDS011;4359;49.358;11.256;2023-05-14T13:54:51;5.95;;;3.40;;
8642;SDS011;4359;49.358;11.256;2023-05-14T13:57:17;4.70;;;3.50;;
8642;SDS011;4359;49.358;11.256;2023-05-14T13:59:44;6.78;;;3.33;;
8642;SDS011;4359;49.358;11.256;2023-05-14T14:02:10;5.15;;;3.42;;
8642;SDS011;4359;49.358;11.256;2023-05-14T14:04:36;5.47;;;3.55;;
8642;SDS011;4359;49.358;11.256;2023-05-14T14:07:02;5.88;;;3.70;;
8642;SDS011;4359;49.358;11.256;2023-05-14T14:09:28;5.78;;;3.67;;
8642;SDS011;4359;49.358;11.256;2023-05-14T14:11:58;5.43;;;3.60;;
8642;SDS011;4359;49.358;11.256;2023-05-14T14:14:25;5.40;;;3.60;;
8642;SDS011;4359;49.358;11.256;2023-05-14T14:16:50;5.82;;;3.55;;
8642;SDS011;4359;49.358;11.256;2023-05-14T14:19:16;5.05;;;3.70;;
8642;SDS011;4359;49.358;11.256;2023-05-14T14:21:41;5.72;;;4.10;;
8642;SDS011;4359;49.358;11.256;2023-05-14T14:24:07;5.80;;;4.40;;
8642;SDS011;4359;49.358;11.256;2023-05-14T14:26:33;5.13;;;3.75;;
8642;SDS011;4359;49.358;11.256;2023-05-14T14:28:58;17.60;;;8.65;;
8642;SDS011;4359;49.358;11.256;2023-05-14T14:31:24;4.78;;;3.45;;
8642;SDS011;4359;49.358;11.256;2023-05-14T14:33:49;5.30;;;4.15;;
8642;SDS011;4359;49.358;11.256;2023-05-14T14:36:15;5.20;;;4.22;;
8642;SDS011;4359;49.358;11.256;2023-05-14T14:38:41;6.43;;;4.60;;
8642;SDS011;4359;49.358;11.256;2023-05-14T14:41:06;4.53;;;3.45;;
8642;SDS011;4359;49.358;11.256;2023-05-14T14:43:34;4.60;;;3.60;;
8642;SDS011;4359;49.358;11.256;2023-05-14T14:46:00;5.10;;;3.90;;
8642;SDS011;4359;49.358;11.256;2023-05-14T14:48:27;5.05;;;3.75;;
8642;SDS011;4359;49.358;11.256;2023-05-14T14:51:03;4.32;;;3.53;;
8642;SDS011;4359;49.358;11.256;2023-05-14T14:53:30;4.78;;;3.67;;
8642;SDS011;4359;49.358;11.256;2023-05-14T14:55:57;8.77;;;4.78;;